Time;durP1;ratioP1;P1;durP2;ratioP2;P2;SDS_P1;SDS_P2;PMS_P1;PMS_P2;Temp;Humidity;BMP_temperature;BMP_pressure;BME280_temperature;BME280_humidity;BME280_pressure;Samples;Min_cycle;Max_cycle;Signal;HPM_P1;HPM_P2
2023/05/05 00:02:17;;;;;;;22.25;7.55;;;12.00;99.90;;;;;;5053452;28;20032;-75
2023/05/05 00:04:43;;;;;;;16.65;6.68;;;12.00;99.90;;;;;;5053834;28;20021;-75
2023/05/05 00:07:08;;;;;;;19.45;6.78;;;11.90;99.90;;;;;;5052001;28;20464;-76
2023/05/05 00:09:34;;;;;;;18.25;5.82;;;12.00;99.90;;;;;;5053573;28;20104;-75
2023/05/05 00:12:00;;;;;;;12.02;5.65;;;12.00;99.90;;;;;;5054175;28;20154;-78
2023/05/05 00:14:26;;;;;;;14.55;6.80;;;12.00;99.90;;;;;;5053698;28;20138;-75
2023/05/05 00:16:51;;;;;;;11.38;5.50;;;12.00;99.90;;;;;;5053027;28;20040;-75
2023/05/05 00:19:17;;;;;;;14.20;5.65;;;12.00;99.90;;;;;;5052466;28;20040;-76
2023/05/05 00:21:43;;;;;;;13.18;5.45;;;11.90;99.90;;;;;;5053747;28;20025;-74
2023/05/05 00:24:09;;;;;;;14.35;5.22;;;12.00;99.90;;;;;;5052077;28;20025;-75
2023/05/05 00:26:34;;;;;;;9.20;5.10;;;12.00;99.90;;;;;;5053873;28;20028;-74
2023/05/05 00:29:00;;;;;;;11.43;5.38;;;12.00;99.90;;;;;;5053473;28;20544;-75
2023/05/05 00:31:26;;;;;;;13.68;5.45;;;12.00;99.90;;;;;;5053539;28;20099;-74
2023/05/05 00:33:52;;;;;;;13.93;5.47;;;12.10;99.90;;;;;;5053760;28;20441;-74
2023/05/05 00:36:17;;;;;;;14.35;5.50;;;12.10;99.90;;;;;;5053363;28;20033;-74
2023/05/05 00:38:43;;;;;;;14.55;5.10;;;12.00;99.90;;;;;;5053932;28;20377;-75
2023/05/05 00:41:09;;;;;;;15.45;5.32;;;11.90;99.90;;;;;;5053004;28;20032;-75
2023/05/05 00:43:34;;;;;;;14.88;5.38;;;11.90;99.90;;;;;;5054068;28;20032;-74
2023/05/05 00:46:07;;;;;;;9.73;4.60;;;11.90;99.90;;;;;;5053535;28;20070;-74
2023/05/05 00:48:33;;;;;;;14.77;4.93;;;11.90;99.90;;;;;;5053306;28;20031;-74
2023/05/05 00:50:59;;;;;;;15.55;4.53;;;11.90;99.90;;;;;;5053434;28;20119;-74
2023/05/05 00:53:26;;;;;;;13.98;5.25;;;11.90;99.90;;;;;;5053117;28;20040;-75
2023/05/05 00:55:52;;;;;;;14.20;4.45;;;11.90;99.90;;;;;;5052936;28;20029;-74
2023/05/05 00:58:18;;;;;;;12.35;4.45;;;11.90;99.90;;;;;;5052994;28;20379;-74
2023/05/05 01:00:44;;;;;;;9.88;4.50;;;11.90;99.90;;;;;;5053299;28;20536;-74
2023/05/05 01:03:14;;;;;;;6.40;3.20;;;11.90;99.90;;;;;;5052958;28;20025;-73
2023/05/05 01:06:24;;;;;;;14.75;4.03;;;11.90;99.90;;;;;;5053382;28;20098;-74
2023/05/05 01:09:26;;;;;;;7.50;3.35;;;11.90;99.90;;;;;;5053367;28;20028;-75
2023/05/05 01:12:10;;;;;;;13.10;4.32;;;11.90;99.90;;;;;;5053541;28;20463;-75
2023/05/05 01:14:39;;;;;;;7.55;3.42;;;11.90;99.90;;;;;;5053061;28;20033;-75
2023/05/05 01:17:14;;;;;;;8.82;3.35;;;12.00;99.90;;;;;;5052786;28;20060;-76
2023/05/05 01:19:54;;;;;;;8.85;4.00;;;12.00;99.90;;;;;;5052323;28;20079;-75
2023/05/05 01:22:26;;;;;;;10.07;4.40;;;12.00;99.90;;;;;;5052271;28;20436;-75
2023/05/05 01:25:12;;;;;;;11.13;4.28;;;12.00;99.90;;;;;;5053192;28;20025;-75
2023/05/05 01:28:15;;;;;;;13.20;4.55;;;12.00;99.90;;;;;;5052991;28;20040;-75
2023/05/05 01:31:22;;;;;;;4.87;2.10;;;12.00;99.90;;;;;;5052995;28;20041;-75
2023/05/05 01:33:51;;;;;;;0.90;0.90;;;12.00;99.90;;;;;;5052274;28;20037;-74
2023/05/05 01:36:28;;;;;;;0.98;0.70;;;12.10;99.90;;;;;;5052249;28;20044;-74
2023/05/05 01:39:00;;;;;;;0.45;0.40;;;12.10;99.90;;;;;;5052876;28;20025;-74
2023/05/05 01:41:38;;;;;;;0.50;0.50;;;12.00;99.90;;;;;;5052323;28;20033;-75
2023/05/05 01:44:05;;;;;;;1.23;0.68;;;12.10;99.90;;;;;;5051581;28;20079;-74
2023/05/05 01:46:33;;;;;;;0.60;0.60;;;12.00;99.90;;;;;;5052246;28;20029;-75
2023/05/05 01:48:59;;;;;;;0.60;0.60;;;12.00;99.90;;;;;;5051821;28;20424;-75
2023/05/05 01:51:26;;;;;;;0.60;0.60;;;12.00;99.90;;;;;;5052160;28;20033;-74
2023/05/05 01:53:56;;;;;;;0.70;0.63;;;12.10;99.90;;;;;;5052807;28;20033;-74
2023/05/05 01:56:23;;;;;;;0.70;0.70;;;12.10;99.90;;;;;;5051987;28;20029;-75
2023/05/05 01:58:51;;;;;;;0.70;0.70;;;12.00;99.90;;;;;;5052419;28;20029;-75
2023/05/05 02:01:20;;;;;;;0.93;0.90;;;12.00;99.90;;;;;;5052099;28;20450;-74
2023/05/05 02:03:48;;;;;;;0.98;0.98;;;12.00;99.90;;;;;;5052637;28;20040;-74
2023/05/05 02:06:15;;;;;;;1.40;1.30;;;12.00;99.90;;;;;;5052265;28;20108;-75
2023/05/05 02:08:42;;;;;;;1.92;1.40;;;11.90;99.90;;;;;;5054366;28;20029;-75
2023/05/05 02:11:10;;;;;;;1.60;1.50;;;11.90;99.90;;;;;;5056218;28;20442;-75
2023/05/05 02:13:37;;;;;;;3.10;1.50;;;11.90;99.90;;;;;;5056760;28;20029;-75
2023/05/05 02:16:05;;;;;;;1.45;1.35;;;11.90;99.90;;;;;;5055122;28;20033;-75
2023/05/05 02:18:34;;;;;;;1.58;1.48;;;11.90;99.90;;;;;;5055879;28;20079;-75
2023/05/05 02:21:01;;;;;;;2.53;2.03;;;11.90;99.90;;;;;;5055991;28;20148;-75
2023/05/05 02:23:27;;;;;;;2.10;1.90;;;11.90;99.90;;;;;;5055653;28;20454;-75
2023/05/05 02:25:58;;;;;;;2.00;1.90;;;11.90;99.90;;;;;;5018586;28;20051;-75
2023/05/05 02:28:47;;;;;;;2.13;2.03;;;11.90;99.90;;;;;;5035403;28;20105;-76
2023/05/05 02:31:16;;;;;;;1.27;1.17;;;11.90;99.90;;;;;;5035387;28;20219;-75
2023/05/05 02:33:43;;;;;;;1.40;1.30;;;11.90;99.90;;;;;;5035903;28;20021;-75
2023/05/05 02:36:21;;;;;;;1.40;1.30;;;11.90;99.90;;;;;;5035818;28;20050;-76
2023/05/05 02:38:52;;;;;;;1.40;1.30;;;11.90;99.90;;;;;;5036080;28;20429;-75
2023/05/05 02:41:20;;;;;;;1.48;1.38;;;11.90;99.90;;;;;;5035676;28;20033;-75
2023/05/05 02:43:48;;;;;;;2.10;1.50;;;11.90;99.90;;;;;;5017986;28;20053;-75
2023/05/05 02:46:15;;;;;;;1.45;1.35;;;11.90;99.90;;;;;;5035032;28;20063;-76
2023/05/05 02:48:41;;;;;;;1.58;1.48;;;12.00;99.90;;;;;;5036185;28;20113;-75
2023/05/05 02:51:07;;;;;;;1.35;1.25;;;12.00;99.90;;;;;;5046887;28;20065;-75
2023/05/05 02:53:33;;;;;;;1.30;1.20;;;12.00;99.90;;;;;;5054801;28;20033;-75
2023/05/05 02:56:35;;;;;;;0.90;0.90;;;12.00;99.90;;;;;;5055696;28;20086;-75
2023/05/05 02:59:18;;;;;;;1.30;1.20;;;12.00;99.90;;;;;;5047186;28;20040;-74
2023/05/05 03:01:58;;;;;;;;;;;12.00;99.90;;;;;;5056063;28;20394;-75
2023/05/05 03:04:37;;;;;;;1.10;1.00;;;12.00;99.90;;;;;;5055460;28;19991;-75
2023/05/05 03:07:11;;;;;;;1.33;1.23;;;12.00;99.90;;;;;;5055577;28;20041;-75
2023/05/05 03:09:42;;;;;;;1.23;1.00;;;12.00;99.90;;;;;;5055447;28;20071;-75
2023/05/05 03:12:10;;;;;;;1.00;1.00;;;12.00;99.90;;;;;;5055902;28;20025;-73
2023/05/05 03:14:41;;;;;;;1.13;1.10;;;12.00;99.90;;;;;;5055283;28;20079;-74
2023/05/05 03:17:11;;;;;;;1.13;1.13;;;12.00;99.90;;;;;;5055634;28;20072;-73
2023/05/05 03:19:40;;;;;;;1.10;1.00;;;12.00;99.90;;;;;;5054138;28;20029;-73
2023/05/05 03:22:06;;;;;;;1.10;1.00;;;12.00;99.90;;;;;;5054922;28;20021;-74
2023/05/05 03:24:31;;;;;;;1.85;1.10;;;12.00;99.90;;;;;;5054657;28;20028;-73
2023/05/05 03:26:57;;;;;;;1.05;0.70;;;12.00;99.90;;;;;;5055424;28;20063;-73
2023/05/05 03:29:24;;;;;;;0.98;0.98;;;12.00;99.90;;;;;;5053287;28;20098;-74
2023/05/05 03:31:49;;;;;;;1.05;0.68;;;12.00;99.90;;;;;;5054234;28;20037;-72
2023/05/05 03:34:15;;;;;;;0.77;0.77;;;12.00;99.90;;;;;;5054565;28;20386;-75
2023/05/05 03:36:42;;;;;;;0.82;0.82;;;12.00;99.90;;;;;;5054168;28;20122;-73
2023/05/05 03:39:08;;;;;;;0.63;0.63;;;12.00;99.90;;;;;;5055309;28;20025;-73
2023/05/05 03:41:34;;;;;;;0.73;0.73;;;12.00;99.90;;;;;;5053395;28;20646;-73
2023/05/05 03:43:59;;;;;;;0.80;0.80;;;12.00;99.90;;;;;;5055367;28;20481;-73
2023/05/05 03:46:25;;;;;;;0.70;0.70;;;12.00;99.90;;;;;;5054344;28;20103;-74
2023/05/05 03:48:51;;;;;;;1.40;0.52;;;12.00;99.90;;;;;;5054993;28;20071;-74
2023/05/05 03:51:16;;;;;;;0.60;0.60;;;12.00;99.90;;;;;;5052233;28;20088;-75
2023/05/05 03:53:42;;;;;;;0.60;0.60;;;12.00;99.90;;;;;;5054835;28;20386;-73
2023/05/05 03:56:08;;;;;;;0.65;0.60;;;12.00;99.90;;;;;;5053270;28;20124;-74
2023/05/05 03:58:34;;;;;;;0.93;0.60;;;12.00;99.90;;;;;;5054149;28;20025;-73
2023/05/05 04:01:00;;;;;;;0.80;0.80;;;12.00;99.90;;;;;;5054798;28;20035;-74
2023/05/05 04:03:26;;;;;;;0.73;0.60;;;12.00;99.90;;;;;;5053918;28;20057;-74
2023/05/05 04:05:51;;;;;;;0.75;0.70;;;12.00;99.90;;;;;;5053234;28;20064;-73
2023/05/05 04:08:17;;;;;;;0.40;0.40;;;12.00;99.90;;;;;;5053962;28;20033;-75
2023/05/05 04:10:43;;;;;;;0.50;0.50;;;12.10;99.90;;;;;;5054438;28;20056;-74
2023/05/05 04:13:09;;;;;;;0.57;0.57;;;12.10;99.90;;;;;;5053255;28;20028;-73
2023/05/05 04:15:34;;;;;;;1.20;0.80;;;12.10;99.90;;;;;;5052482;28;20387;-75
2023/05/05 04:18:00;;;;;;;0.70;0.70;;;12.10;99.90;;;;;;5054166;28;20056;-75
2023/05/05 04:20:26;;;;;;;0.55;0.55;;;12.20;99.90;;;;;;5054090;28;20033;-75
2023/05/05 04:22:51;;;;;;;3.08;1.00;;;12.10;99.90;;;;;;5055403;28;20421;-74
2023/05/05 04:25:17;;;;;;;0.93;0.85;;;12.10;99.90;;;;;;5055250;28;20040;-75
2023/05/05 04:27:43;;;;;;;0.90;0.73;;;12.20;99.90;;;;;;5054607;28;20454;-74
2023/05/05 04:30:09;;;;;;;1.08;0.80;;;12.10;99.90;;;;;;5059407;28;20049;-74
2023/05/05 04:32:35;;;;;;;2.08;0.90;;;12.10;99.90;;;;;;5059514;28;20035;-74
2023/05/05 04:35:01;;;;;;;1.42;0.80;;;12.10;99.90;;;;;;5060108;28;20107;-74
2023/05/05 04:37:26;;;;;;;1.02;0.70;;;12.10;99.90;;;;;;5058295;28;20065;-74
2023/05/05 04:39:52;;;;;;;1.75;0.80;;;12.10;99.90;;;;;;5057013;28;20017;-74
2023/05/05 04:42:18;;;;;;;2.78;1.00;;;12.00;99.90;;;;;;5055938;28;20029;-76
2023/05/05 04:44:43;;;;;;;1.67;1.02;;;12.10;99.90;;;;;;5057661;28;20028;-73
2023/05/05 04:47:09;;;;;;;1.55;1.10;;;12.10;99.90;;;;;;5038243;28;20096;-73
2023/05/05 04:49:35;;;;;;;1.95;0.98;;;12.10;99.90;;;;;;5055527;28;20037;-75
2023/05/05 04:52:01;;;;;;;2.33;0.85;;;12.10;99.90;;;;;;5055597;28;20029;-75
2023/05/05 04:54:27;;;;;;;1.50;0.75;;;12.10;99.90;;;;;;5054294;28;20409;-75
2023/05/05 04:56:53;;;;;;;1.52;0.85;;;12.10;99.90;;;;;;5056662;28;20060;-74
2023/05/05 04:59:18;;;;;;;4.55;1.08;;;12.10;99.90;;;;;;5055291;28;20087;-77
2023/05/05 05:01:44;;;;;;;2.17;0.82;;;12.10;99.90;;;;;;5054143;28;20025;-74
2023/05/05 05:04:10;;;;;;;1.70;0.80;;;12.10;99.90;;;;;;5054455;28;20032;-74
2023/05/05 05:06:36;;;;;;;2.63;0.90;;;12.10;99.90;;;;;;5052054;28;20035;-75
2023/05/05 05:09:01;;;;;;;2.13;0.95;;;12.10;99.90;;;;;;5054198;28;20440;-75
2023/05/05 05:11:27;;;;;;;0.95;0.73;;;12.10;99.90;;;;;;5052237;28;20482;-74
2023/05/05 05:13:53;;;;;;;4.03;0.90;;;12.10;99.90;;;;;;5053275;28;20056;-75
2023/05/05 05:16:20;;;;;;;0.82;0.82;;;12.20;99.90;;;;;;5052932;28;20029;-74
2023/05/05 05:18:46;;;;;;;1.88;0.57;;;12.20;99.90;;;;;;5052996;28;20021;-74
2023/05/05 05:21:12;;;;;;;2.63;0.82;;;12.20;99.90;;;;;;5053087;28;20083;-75
2023/05/05 05:23:37;;;;;;;1.38;0.70;;;12.20;99.90;;;;;;5052139;28;20101;-75
2023/05/05 05:26:04;;;;;;;2.60;0.82;;;12.20;99.90;;;;;;5053194;28;20056;-74
2023/05/05 05:28:30;;;;;;;2.08;0.70;;;12.20;99.90;;;;;;5052783;28;20053;-75
2023/05/05 05:30:56;;;;;;;3.03;1.10;;;12.20;99.90;;;;;;5053791;28;20151;-74
2023/05/05 05:33:22;;;;;;;2.20;1.00;;;12.10;99.90;;;;;;5053558;28;20029;-76
2023/05/05 05:35:47;;;;;;;2.65;0.80;;;12.20;99.90;;;;;;5052312;28;20033;-73
2023/05/05 05:38:13;;;;;;;3.30;0.82;;;12.10;99.90;;;;;;5053590;28;20025;-75
2023/05/05 05:40:39;;;;;;;2.17;0.65;;;12.10;99.90;;;;;;5051565;28;20386;-75
2023/05/05 05:43:05;;;;;;;4.20;0.98;;;12.10;99.90;;;;;;5053030;28;20029;-73
2023/05/05 05:45:31;;;;;;;2.38;0.80;;;12.10;99.90;;;;;;5053239;28;20040;-73
2023/05/05 05:47:56;;;;;;;1.10;0.73;;;12.20;99.90;;;;;;5053611;28;20024;-73
2023/05/05 05:50:23;;;;;;;2.95;0.80;;;12.10;99.90;;;;;;5052210;28;20036;-76
2023/05/05 05:52:49;;;;;;;1.65;0.88;;;12.10;99.90;;;;;;5052949;28;20078;-74
2023/05/05 05:55:14;;;;;;;1.88;0.70;;;12.20;99.90;;;;;;5053580;28;20033;-74
2023/05/05 05:57:40;;;;;;;1.83;0.75;;;12.20;99.90;;;;;;5051667;28;20041;-75
2023/05/05 06:00:06;;;;;;;1.40;0.70;;;12.20;99.90;;;;;;5053421;28;20031;-73
2023/05/05 06:02:32;;;;;;;0.82;0.70;;;12.30;99.90;;;;;;5052825;28;20021;-75
2023/05/05 06:04:58;;;;;;;2.80;1.35;;;12.30;99.90;;;;;;5053408;28;20040;-74
2023/05/05 06:07:24;;;;;;;0.98;0.70;;;12.30;99.90;;;;;;5053437;28;20060;-75
2023/05/05 06:09:50;;;;;;;2.15;0.82;;;12.40;99.90;;;;;;5050765;28;20055;-75
2023/05/05 06:12:15;;;;;;;0.63;0.50;;;12.40;99.90;;;;;;5030604;28;20029;-76
2023/05/05 06:14:41;;;;;;;1.45;1.05;;;12.50;99.90;;;;;;5034694;28;20032;-75
2023/05/05 06:17:07;;;;;;;1.67;0.98;;;12.50;99.90;;;;;;5053664;28;20033;-74
2023/05/05 06:19:34;;;;;;;2.75;1.20;;;12.60;99.90;;;;;;5034210;28;20021;-75
2023/05/05 06:21:59;;;;;;;3.53;0.90;;;12.60;99.90;;;;;;5052602;28;20040;-75
2023/05/05 06:24:25;;;;;;;3.20;1.00;;;12.60;99.90;;;;;;5040678;28;20029;-76
2023/05/05 06:26:51;;;;;;;1.02;0.80;;;12.70;99.90;;;;;;5051140;28;20029;-75
2023/05/05 06:29:16;;;;;;;1.35;0.70;;;12.80;99.90;;;;;;5051349;28;20056;-75
2023/05/05 06:31:42;;;;;;;3.17;1.00;;;12.80;99.90;;;;;;5052221;28;20085;-75
2023/05/05 06:34:08;;;;;;;3.97;0.90;;;12.80;99.90;;;;;;5051385;28;20083;-75
2023/05/05 06:36:34;;;;;;;4.47;0.93;;;12.80;99.90;;;;;;5051966;28;20033;-74
2023/05/05 06:39:00;;;;;;;1.38;0.90;;;12.90;99.90;;;;;;5052852;28;20457;-75
2023/05/05 06:41:26;;;;;;;4.00;0.70;;;13.00;99.90;;;;;;5052336;28;20021;-76
2023/05/05 06:43:51;;;;;;;3.88;1.13;;;13.00;99.90;;;;;;5051243;28;20496;-75
2023/05/05 06:46:17;;;;;;;1.40;0.90;;;13.10;99.90;;;;;;5052281;28;20036;-75
2023/05/05 06:48:43;;;;;;;2.20;0.70;;;13.10;99.90;;;;;;5052171;28;20040;-73
2023/05/05 06:51:09;;;;;;;1.95;0.98;;;13.30;99.90;;;;;;5051847;28;20364;-74
2023/05/05 06:53:34;;;;;;;1.40;0.88;;;13.30;99.90;;;;;;5051993;28;20029;-75
2023/05/05 06:56:00;;;;;;;3.05;0.90;;;13.40;99.90;;;;;;5055630;28;20029;-75
2023/05/05 06:58:26;;;;;;;1.02;0.60;;;13.60;99.90;;;;;;5056920;28;20078;-76
2023/05/05 07:00:52;;;;;;;2.17;1.00;;;13.90;99.90;;;;;;5055973;28;20091;-75
2023/05/05 07:03:18;;;;;;;2.45;1.10;;;14.20;99.90;;;;;;5056870;28;20033;-74
2023/05/05 07:05:44;;;;;;;4.63;0.98;;;14.50;99.90;;;;;;5055922;28;20032;-75
2023/05/05 07:08:10;;;;;;;3.60;0.90;;;14.70;99.90;;;;;;5038410;28;20032;-75
2023/05/05 07:10:36;;;;;;;4.03;1.00;;;14.90;99.90;;;;;;5055066;28;20033;-76
2023/05/05 07:13:01;;;;;;;5.63;0.80;;;15.00;99.90;;;;;;5056106;28;20029;-76
2023/05/05 07:15:27;;;;;;;2.80;1.05;;;15.10;99.90;;;;;;5056004;28;20029;-77
2023/05/05 07:17:53;;;;;;;4.10;1.35;;;15.20;99.90;;;;;;5055651;28;20489;-75
2023/05/05 07:20:18;;;;;;;1.83;0.82;;;15.30;99.90;;;;;;5055221;28;20025;-73
2023/05/05 07:22:44;;;;;;;2.53;1.08;;;15.40;99.90;;;;;;5055831;28;20025;-76
2023/05/05 07:25:11;;;;;;;6.25;1.20;;;15.50;99.90;;;;;;5055649;28;20039;-75
2023/05/05 07:27:37;;;;;;;2.90;1.25;;;15.50;99.90;;;;;;5055017;28;20363;-75
2023/05/05 07:30:03;;;;;;;3.40;1.10;;;15.60;99.90;;;;;;5055149;28;20461;-74
2023/05/05 07:32:29;;;;;;;3.15;1.40;;;15.50;99.90;;;;;;5055114;28;20032;-76
2023/05/05 07:34:55;;;;;;;2.55;1.10;;;15.60;99.90;;;;;;5055824;28;20017;-75
2023/05/05 07:37:21;;;;;;;2.92;1.05;;;15.70;99.90;;;;;;5055907;28;20037;-74
2023/05/05 07:39:47;;;;;;;1.08;0.98;;;15.70;99.90;;;;;;5055720;28;20104;-75
2023/05/05 07:42:13;;;;;;;1.85;1.00;;;15.70;99.90;;;;;;5055901;28;20032;-75
2023/05/05 07:44:39;;;;;;;3.88;1.00;;;15.80;99.90;;;;;;5054209;28;20542;-75
2023/05/05 07:47:05;;;;;;;2.72;1.33;;;15.90;99.90;;;;;;5055517;28;20108;-75
2023/05/05 07:49:31;;;;;;;4.22;1.13;;;15.90;99.90;;;;;;5055539;28;20035;-76
2023/05/05 07:51:57;;;;;;;2.63;0.85;;;16.00;99.90;;;;;;5055833;28;20452;-76
2023/05/05 07:54:23;;;;;;;3.33;0.98;;;16.10;99.90;;;;;;5056381;28;20029;-75
2023/05/05 07:56:48;;;;;;;1.58;1.00;;;16.20;99.90;;;;;;5053128;28;20033;-75
2023/05/05 07:59:14;;;;;;;6.75;1.00;;;16.30;99.90;;;;;;5056679;28;20031;-74
2023/05/05 08:01:41;;;;;;;4.07;0.95;;;16.30;99.90;;;;;;5057131;28;20492;-73
2023/05/05 08:04:06;;;;;;;3.03;0.98;;;16.30;99.90;;;;;;5055426;28;20122;-74
2023/05/05 08:06:32;;;;;;;5.25;1.10;;;16.30;99.90;;;;;;5054889;28;20060;-75
2023/05/05 08:09:02;;;;;;;3.17;0.85;;;16.30;99.90;;;;;;5056221;28;20035;-73
2023/05/05 08:11:27;;;;;;;3.05;0.90;;;16.30;99.90;;;;;;5056126;28;20074;-73
2023/05/05 08:13:53;;;;;;;1.17;0.90;;;16.40;99.90;;;;;;5054953;28;20029;-73
2023/05/05 08:16:19;;;;;;;1.08;0.70;;;16.40;99.90;;;;;;5053771;28;20444;-74
2023/05/05 08:18:45;;;;;;;2.53;0.93;;;16.50;99.90;;;;;;5054530;28;20048;-73
2023/05/05 08:21:11;;;;;;;3.63;1.20;;;16.40;99.90;;;;;;5054976;28;20025;-74
2023/05/05 08:23:37;;;;;;;5.80;1.42;;;16.60;99.90;;;;;;5036195;28;20549;-74
2023/05/05 08:26:08;;;;;;;3.42;1.23;;;16.70;99.90;;;;;;5054137;28;20033;-73
2023/05/05 08:28:35;;;;;;;2.75;1.00;;;16.70;99.90;;;;;;5054336;28;20372;-74
2023/05/05 08:31:02;;;;;;;2.58;1.33;;;16.60;99.90;;;;;;5054312;28;20056;-74
2023/05/05 08:33:28;;;;;;;4.53;1.42;;;16.60;99.90;;;;;;5054662;28;20532;-74
2023/05/05 08:35:54;;;;;;;3.67;1.13;;;16.50;99.90;;;;;;5054170;28;20025;-74
2023/05/05 08:38:19;;;;;;;5.35;1.40;;;16.60;99.90;;;;;;5054551;28;20075;-75
2023/05/05 08:40:45;;;;;;;6.63;1.42;;;16.50;99.90;;;;;;5054148;28;20089;-75
2023/05/05 08:43:11;;;;;;;5.13;1.00;;;16.40;99.90;;;;;;5054228;28;20083;-74
2023/05/05 08:45:40;;;;;;;9.10;1.90;;;16.30;99.90;;;;;;5053795;28;20040;-76
2023/05/05 08:48:07;;;;;;;2.30;1.00;;;16.10;99.90;;;;;;5052332;28;20025;-74
2023/05/05 08:50:33;;;;;;;3.55;1.15;;;16.10;99.90;;;;;;5035778;28;20097;-75
2023/05/05 08:53:02;;;;;;;3.55;1.50;;;16.10;99.90;;;;;;5054391;28;20113;-74
2023/05/05 08:55:33;;;;;;;6.40;1.55;;;16.20;99.90;;;;;;5052771;28;20024;-75
2023/05/05 08:58:02;;;;;;;3.83;1.35;;;16.30;99.90;;;;;;5050312;28;20041;-75
2023/05/05 09:00:29;;;;;;;6.13;1.50;;;16.30;99.90;;;;;;5053590;28;20028;-75
2023/05/05 09:02:58;;;;;;;3.47;1.23;;;16.20;99.90;;;;;;5053628;28;20056;-74
2023/05/05 09:05:25;;;;;;;2.38;1.10;;;16.20;99.90;;;;;;5054343;28;20021;-75
2023/05/05 09:07:51;;;;;;;2.83;1.17;;;16.20;99.90;;;;;;5052337;28;20033;-75
2023/05/05 09:10:17;;;;;;;4.82;1.50;;;16.20;99.90;;;;;;5052557;28;20532;-74
2023/05/05 09:12:43;;;;;;;4.72;1.45;;;16.10;99.90;;;;;;5052009;28;20025;-75
2023/05/05 09:15:11;;;;;;;3.92;1.60;;;16.10;99.90;;;;;;5053844;28;20032;-75
2023/05/05 09:17:38;;;;;;;3.40;1.60;;;16.20;99.90;;;;;;5052853;28;20111;-76
2023/05/05 09:20:11;;;;;;;3.72;1.60;;;16.30;99.90;;;;;;5053592;28;20024;-75
2023/05/05 09:22:45;;;;;;;4.70;1.58;;;16.60;99.90;;;;;;5051367;28;20116;-76
2023/05/05 09:25:13;;;;;;;5.93;1.60;;;16.90;99.90;;;;;;5053265;28;20470;-75
2023/05/05 09:27:41;;;;;;;4.90;1.70;;;17.10;99.90;;;;;;5051860;28;20094;-75
2023/05/05 09:30:08;;;;;;;3.00;1.30;;;17.30;99.90;;;;;;5052728;28;20057;-75
2023/05/05 09:32:51;;;;;;;4.28;1.40;;;17.40;99.90;;;;;;5052346;28;20466;-75
2023/05/05 09:35:18;;;;;;;3.65;1.40;;;17.60;99.90;;;;;;5051554;28;20098;-75
2023/05/05 09:37:44;;;;;;;6.43;1.80;;;17.70;99.90;;;;;;5052471;28;20110;-75
2023/05/05 09:40:16;;;;;;;4.38;1.60;;;17.90;99.90;;;;;;5053403;28;20470;-76
2023/05/05 09:42:43;;;;;;;5.50;1.60;;;18.10;99.90;;;;;;5052503;28;20025;-75
2023/05/05 09:45:18;;;;;;;5.63;1.70;;;18.20;99.90;;;;;;5054267;28;20104;-75
2023/05/05 09:47:45;;;;;;;4.90;1.67;;;18.30;99.90;;;;;;5052564;28;20592;-75
2023/05/05 09:50:17;;;;;;;7.38;1.48;;;18.30;99.90;;;;;;5053153;28;20355;-75
2023/05/05 09:52:56;;;;;;;3.30;1.25;;;18.40;99.90;;;;;;5053142;28;20059;-76
2023/05/05 09:55:23;;;;;;;2.33;0.90;;;18.30;99.90;;;;;;5053731;28;20091;-75
2023/05/05 09:57:49;;;;;;;3.40;1.27;;;18.40;99.90;;;;;;5052659;28;20076;-76
2023/05/05 10:00:15;;;;;;;4.40;1.17;;;18.30;99.90;;;;;;5052631;28;20020;-75
2023/05/05 10:02:41;;;;;;;2.85;1.27;;;18.30;99.90;;;;;;5035516;28;20025;-75
2023/05/05 10:05:11;;;;;;;6.32;1.55;;;18.30;99.90;;;;;;5053159;28;20025;-76
2023/05/05 10:07:38;;;;;;;4.13;1.02;;;18.50;99.90;;;;;;5052904;28;20040;-76
2023/05/05 10:10:06;;;;;;;2.08;1.20;;;18.60;99.90;;;;;;5053273;28;20017;-76
2023/05/05 10:12:35;;;;;;;5.72;1.40;;;18.70;99.90;;;;;;5052866;28;20033;-75
2023/05/05 10:15:02;;;;;;;4.65;1.30;;;18.90;99.90;;;;;;5051325;28;20024;-75
2023/05/05 10:17:31;;;;;;;3.90;1.27;;;18.90;99.90;;;;;;5053135;28;20048;-75
2023/05/05 10:19:59;;;;;;;3.85;1.08;;;19.10;99.90;;;;;;5053097;28;20462;-75
2023/05/05 10:22:29;;;;;;;4.97;1.40;;;19.10;99.90;;;;;;5052170;28;20025;-75
2023/05/05 10:25:14;;;;;;;5.30;1.35;;;19.10;99.90;;;;;;5052846;28;20108;-75
2023/05/05 10:27:50;;;;;;;5.32;1.33;;;19.20;99.90;;;;;;5052332;28;20462;-76
2023/05/05 10:30:18;;;;;;;5.82;1.20;;;19.20;99.90;;;;;;5052581;28;20056;-75
2023/05/05 10:32:52;;;;;;;3.55;1.25;;;19.10;99.90;;;;;;5056757;28;20102;-76
2023/05/05 10:35:23;;;;;;;6.53;1.20;;;19.00;99.90;;;;;;5057555;28;20029;-76
2023/05/05 10:37:50;;;;;;;3.28;1.20;;;19.00;99.90;;;;;;5055921;28;20025;-75
2023/05/05 10:40:16;;;;;;;6.45;2.20;;;19.10;99.90;;;;;;5058678;28;20078;-76
2023/05/05 10:42:42;;;;;;;5.15;1.50;;;19.10;99.90;;;;;;5057061;28;20151;-75
2023/05/05 10:45:08;;;;;;;4.63;1.27;;;19.10;99.90;;;;;;5057187;28;20494;-75
2023/05/05 10:47:36;;;;;;;2.90;1.20;;;19.10;99.90;;;;;;5058727;28;20446;-75
2023/05/05 10:50:05;;;;;;;2.50;1.00;;;19.00;99.90;;;;;;5058532;28;20029;-75
2023/05/05 10:52:40;;;;;;;4.32;1.20;;;19.00;99.90;;;;;;5057676;28;20092;-74
2023/05/05 10:55:16;;;;;;;7.53;1.20;;;19.10;99.90;;;;;;5057086;28;20052;-74
2023/05/05 10:57:44;;;;;;;5.57;1.45;;;19.20;99.90;;;;;;5055218;28;20033;-76
2023/05/05 11:00:30;;;;;;;2.90;1.40;;;19.30;99.90;;;;;;5055693;28;20033;-75
2023/05/05 11:03:15;;;;;;;3.72;1.17;;;19.40;99.90;;;;;;5055876;28;20037;-74
2023/05/05 11:06:02;;;;;;;4.90;1.17;;;19.40;99.90;;;;;;5056914;28;20100;-76
2023/05/05 11:08:33;;;;;;;4.47;1.63;;;19.40;99.90;;;;;;5036521;28;20041;-75
2023/05/05 11:10:59;;;;;;;6.07;1.23;;;19.50;99.90;;;;;;5035976;28;20079;-75
2023/05/05 11:13:25;;;;;;;5.88;1.50;;;19.40;99.90;;;;;;5036391;28;20025;-75
2023/05/05 11:15:55;;;;;;;4.20;1.30;;;19.40;99.90;;;;;;5035311;28;20037;-75
2023/05/05 11:18:34;;;;;;;3.97;1.35;;;19.50;99.90;;;;;;5036593;28;20029;-75
2023/05/05 11:21:00;;;;;;;4.95;1.27;;;19.50;99.90;;;;;;5017981;28;20471;-75
2023/05/05 11:23:26;;;;;;;3.47;1.33;;;19.60;99.90;;;;;;5036035;28;20036;-75
2023/05/05 11:25:53;;;;;;;4.13;1.20;;;19.70;99.90;;;;;;5035085;28;20115;-76
2023/05/05 11:28:22;;;;;;;4.32;1.35;;;19.80;99.90;;;;;;5035971;28;20025;-76
2023/05/05 11:30:59;;;;;;;4.82;1.20;;;19.80;99.90;;;;;;5055009;28;20029;-76
2023/05/05 11:33:29;;;;;;;5.32;1.30;;;19.70;99.90;;;;;;5055656;28;20055;-76
2023/05/05 11:35:58;;;;;;;4.05;1.27;;;19.80;99.90;;;;;;5055013;28;20481;-76
2023/05/05 11:38:42;;;;;;;2.90;1.10;;;19.80;99.90;;;;;;5055891;28;20031;-75
2023/05/05 11:41:13;;;;;;;3.58;1.30;;;19.80;99.90;;;;;;5053309;28;20033;-75
2023/05/05 11:43:40;;;;;;;4.15;1.40;;;19.80;99.90;;;;;;5056897;28;20037;-75
2023/05/05 11:46:24;;;;;;;3.15;1.10;;;19.60;99.90;;;;;;5055594;28;20116;-76
2023/05/05 11:48:52;;;;;;;8.38;1.67;;;19.60;99.90;;;;;;5056566;28;20025;-77
2023/05/05 11:51:18;;;;;;;4.53;1.48;;;19.70;99.90;;;;;;5056283;28;20037;-76
2023/05/05 11:53:46;;;;;;;4.68;1.20;;;19.80;99.90;;;;;;5054503;28;20025;-77
2023/05/05 11:56:21;;;;;;;4.15;1.27;;;20.00;99.90;;;;;;5054509;28;20028;-76
2023/05/05 11:58:48;;;;;;;3.67;1.50;;;20.10;99.90;;;;;;5055600;28;20033;-77
2023/05/05 12:01:14;;;;;;;3.90;1.25;;;20.10;99.90;;;;;;5054792;28;20021;-77
2023/05/05 12:03:40;;;;;;;2.67;1.00;;;20.10;99.90;;;;;;5055723;28;20065;-76
2023/05/05 12:06:07;;;;;;;6.57;1.10;;;20.10;99.90;;;;;;5055215;28;20044;-76
2023/05/05 12:08:40;;;;;;;5.32;1.35;;;20.10;99.90;;;;;;5055580;28;20069;-76
2023/05/05 12:11:06;;;;;;;;;;;20.10;99.90;;;;;;5055236;28;20029;-75
2023/05/05 12:13:32;;;;;;;6.60;1.52;;;20.20;99.90;;;;;;5055348;28;19957;-76
2023/05/05 12:16:11;;;;;;;3.90;1.25;;;20.10;99.90;;;;;;5054443;28;20111;-76
2023/05/05 12:18:38;;;;;;;6.88;1.67;;;19.90;99.90;;;;;;5056078;28;20032;-76
2023/05/05 12:21:16;;;;;;;5.53;1.50;;;19.70;99.90;;;;;;5054863;28;20029;-76
2023/05/05 12:23:42;;;;;;;5.85;1.20;;;19.60;99.90;;;;;;5055034;28;20021;-76
2023/05/05 12:26:26;;;;;;;4.82;0.93;;;19.50;99.90;;;;;;5055025;28;20040;-75
2023/05/05 12:28:53;;;;;;;3.40;1.23;;;19.50;99.90;;;;;;5054292;28;20182;-76
2023/05/05 12:31:19;;;;;;;2.47;0.95;;;19.70;99.90;;;;;;5039975;28;20057;-76
2023/05/05 12:33:45;;;;;;;2.65;1.10;;;19.80;99.90;;;;;;5036275;28;20471;-76
2023/05/05 12:36:12;;;;;;;6.47;1.30;;;19.90;99.90;;;;;;5019643;28;20025;-76
2023/05/05 12:38:37;;;;;;;3.85;0.90;;;19.90;99.90;;;;;;5037421;28;20033;-76
2023/05/05 12:41:04;;;;;;;4.32;1.00;;;19.90;99.90;;;;;;5037170;28;20037;-76
2023/05/05 12:43:32;;;;;;;2.20;1.00;;;19.80;99.90;;;;;;5035450;28;20053;-75
2023/05/05 12:46:09;;;;;;;6.57;1.20;;;19.80;99.90;;;;;;5017390;28;20064;-75
2023/05/05 12:48:39;;;;;;;2.63;0.85;;;19.80;99.90;;;;;;5036150;28;20044;-76
2023/05/05 12:51:18;;;;;;;2.85;0.60;;;19.80;99.90;;;;;;5034970;28;20021;-76
2023/05/05 12:53:46;;;;;;;3.85;1.38;;;19.80;99.90;;;;;;5040572;28;20025;-76